createdAt,value
2017-05-22T00:00:09.844Z,50.32
2017-05-22T00:00:50.428Z,50.22
2017-05-22T00:01:31.021Z,50.22
2017-05-22T00:02:11.596Z,50.32
2017-05-22T00:02:52.212Z,50.51
2017-05-22T00:03:32.814Z,50.79
2017-05-22T00:04:13.411Z,50.6
2017-05-22T00:04:53.998Z,50.51
2017-05-22T00:05:34.586Z,50.6
2017-05-22T00:06:15.192Z,50.6
2017-05-22T00:06:55.774Z,51.18
2017-05-22T00:07:36.361Z,50.99
2017-05-22T00:08:16.958Z,50.87
2017-05-22T00:08:57.542Z,50.99
2017-05-22T00:09:38.124Z,51.18
2017-05-22T00:10:18.735Z,50.87
2017-05-22T00:10:59.316Z,50.89
2017-05-22T00:11:39.905Z,50.77
2017-05-22T00:12:20.508Z,51.15
2017-05-22T00:13:01.089Z,51.37
2017-05-22T00:13:41.664Z,51.06
2017-05-22T00:14:22.238Z,51.25
2017-05-22T00:15:02.799Z,50.96
2017-05-22T00:15:43.376Z,51.37
2017-05-22T00:16:23.968Z,51.54
2017-05-22T00:17:04.553Z,51.15
2017-05-22T00:17:45.192Z,51.34
2017-05-22T00:18:25.705Z,51.34
2017-05-22T00:19:06.292Z,51.92
2017-05-22T00:19:46.878Z,52.01
2017-05-22T00:20:27.463Z,51.44
2017-05-22T00:21:08.043Z,51.44
2017-05-22T00:21:48.640Z,52.2
2017-05-22T00:22:29.220Z,52.01
2017-05-22T00:23:09.836Z,51.92
2017-05-22T00:23:50.417Z,51.73
2017-05-22T00:24:30.998Z,51.82
2017-05-22T00:25:11.592Z,52.4
2017-05-22T00:25:52.171Z,52.4
2017-05-22T00:26:32.755Z,52.11
2017-05-22T00:27:13.319Z,52.3
2017-05-22T00:27:53.898Z,52.5
2017-05-22T00:28:34.499Z,52.4
2017-05-22T00:29:15.095Z,52.4
2017-05-22T00:29:55.667Z,52.5
2017-05-22T00:30:36.267Z,52.2
2017-05-22T00:31:16.841Z,52.4
2017-05-22T00:31:57.418Z,52.2
2017-05-22T00:32:38.021Z,52.59
2017-05-22T00:33:18.616Z,52.01
2017-05-22T00:33:59.212Z,52.5
2017-05-22T00:34:39.795Z,52.5
2017-05-22T00:35:20.388Z,52.5
2017-05-22T00:36:00.978Z,52.4
2017-05-22T00:36:41.565Z,53.07
2017-05-22T00:37:22.183Z,52.69
2017-05-22T00:38:02.771Z,52.4
2017-05-22T00:38:43.355Z,52.69
2017-05-22T00:39:23.939Z,52.69
2017-05-22T00:40:04.518Z,52.87
2017-05-22T00:40:45.086Z,52.97
2017-05-22T00:41:25.662Z,53.07
2017-05-22T00:42:06.245Z,53.16
2017-05-22T00:42:46.822Z,52.78
2017-05-22T00:43:27.444Z,52.97
2017-05-22T00:44:08.039Z,53.07
2017-05-22T00:44:48.611Z,52.87
2017-05-22T00:45:29.217Z,53.26
2017-05-22T00:46:09.811Z,53.16
2017-05-22T00:46:50.404Z,53.07
2017-05-22T00:47:30.977Z,52.78
2017-05-22T00:48:11.572Z,52.78
2017-05-22T00:50:33.097Z,52.97
2017-05-22T00:51:13.659Z,53.26
2017-05-22T00:51:54.236Z,53.64
2017-05-22T00:52:34.806Z,53.45
2017-05-22T00:53:15.387Z,53.45
2017-05-22T00:53:55.961Z,53.55
2017-05-22T00:54:36.538Z,53.36
2017-05-22T00:55:17.152Z,53.36
2017-05-22T00:55:57.716Z,53.16
2017-05-22T00:56:38.299Z,53.45
2017-05-22T00:57:18.881Z,53.26
2017-05-22T00:57:59.461Z,53.07
2017-05-22T00:58:40.035Z,53.36
2017-05-22T00:59:20.624Z,53.36
2017-05-22T01:00:01.182Z,53.36
2017-05-22T01:00:41.786Z,52.97
2017-05-22T01:01:22.360Z,53.36
2017-05-22T01:02:02.939Z,53.36
2017-05-22T01:02:43.507Z,53.16
2017-05-22T01:03:24.122Z,52.87
2017-05-22T01:04:04.706Z,52.87
2017-05-22T01:04:45.278Z,52.87
2017-05-22T01:05:25.867Z,53.07
2017-05-22T01:06:06.432Z,53.07
2017-05-22T01:06:47.090Z,52.97
2017-05-22T01:07:27.681Z,52.78
2017-05-22T01:08:08.252Z,52.97
2017-05-22T01:08:48.849Z,53.07
2017-05-22T01:09:29.430Z,53.16
2017-05-22T01:10:10.024Z,53.07
2017-05-22T01:10:50.623Z,53.07
2017-05-22T01:11:31.216Z,53.07
2017-05-22T01:12:11.797Z,53.26
2017-05-22T01:12:52.376Z,53.45
2017-05-22T01:13:32.972Z,53.45
2017-05-22T01:14:13.571Z,53.74
2017-05-22T01:14:54.147Z,53.36
2017-05-22T01:15:34.760Z,53.36
2017-05-22T01:16:15.341Z,53.26
2017-05-22T01:16:55.910Z,53.36
2017-05-22T01:17:36.478Z,53.36
2017-05-22T01:18:17.067Z,53.26
2017-05-22T01:18:57.687Z,53.16
2017-05-22T01:19:38.265Z,53.55
2017-05-22T01:20:18.824Z,53.74
2017-05-22T01:20:59.419Z,53.64
2017-05-22T01:21:40.008Z,53.55
2017-05-22T01:22:20.599Z,53.55
2017-05-22T01:23:01.182Z,53.36
2017-05-22T01:23:41.744Z,53.16
2017-05-22T01:24:22.328Z,53.45
2017-05-22T01:25:02.907Z,53.45
2017-05-22T01:25:43.518Z,53.55
2017-05-22T01:26:24.151Z,53.36
2017-05-22T01:27:04.740Z,53.26
2017-05-22T01:27:45.338Z,53.16
2017-05-22T01:28:25.924Z,53.26
2017-05-22T01:29:06.496Z,53.55
2017-05-22T01:29:47.091Z,53.74
2017-05-22T01:30:27.704Z,53.36
2017-05-22T01:31:08.283Z,54.12
2017-05-22T01:31:48.907Z,53.74
2017-05-22T01:32:29.487Z,53.93
2017-05-22T01:33:10.053Z,53.74
2017-05-22T01:33:50.626Z,53.64
2017-05-22T01:34:31.221Z,53.74
2017-05-22T01:35:11.796Z,53.55
2017-05-22T01:35:52.374Z,53.93
2017-05-22T01:36:32.983Z,54.12
2017-05-22T01:37:13.556Z,54.12
2017-05-22T01:37:54.141Z,53.64
2017-05-22T01:38:34.730Z,53.91
2017-05-22T01:39:15.311Z,54
2017-05-22T01:39:55.963Z,54.12
2017-05-22T01:40:36.557Z,54.12
2017-05-22T01:41:17.140Z,54.12
2017-05-22T01:41:57.710Z,54.19
2017-05-22T01:42:38.305Z,54.1
2017-05-22T01:43:18.882Z,54.1
2017-05-22T01:43:59.475Z,54.1
2017-05-22T01:44:40.068Z,54.19
2017-05-22T01:45:20.656Z,54.1
2017-05-22T01:46:01.226Z,54.19
2017-05-22T01:46:41.821Z,54
2017-05-22T01:47:22.406Z,54.67
2017-05-22T01:48:03.016Z,54
2017-05-22T01:48:43.599Z,54.28
2017-05-22T01:49:24.216Z,54.28
2017-05-22T01:50:04.807Z,54.48
2017-05-22T01:50:45.385Z,54.19
2017-05-22T01:51:25.987Z,54.28
2017-05-22T01:52:06.585Z,54
2017-05-22T01:52:47.150Z,54.48
2017-05-22T01:53:27.723Z,54.67
2017-05-22T01:54:08.289Z,54.77
2017-05-22T01:54:48.863Z,54.57
2017-05-22T01:55:29.528Z,54
2017-05-22T01:56:10.125Z,54.28
2017-05-22T01:56:50.716Z,54.19
2017-05-22T01:57:31.273Z,54.1
2017-05-22T01:58:11.853Z,54.1
2017-05-22T01:58:52.445Z,54.57
2017-05-22T01:59:33.044Z,54
2017-05-22T02:00:13.628Z,54.19
2017-05-22T02:00:54.194Z,54
2017-05-22T02:01:34.772Z,54.67
2017-05-22T02:02:15.355Z,54.19
2017-05-22T02:02:55.913Z,54
2017-05-22T02:03:36.477Z,54.67
2017-05-22T02:04:17.054Z,54.57
2017-05-22T02:04:57.632Z,54.38
2017-05-22T02:05:38.221Z,54.67
2017-05-22T02:06:18.838Z,54.77
2017-05-22T02:06:59.421Z,54.77
2017-05-22T02:07:39.992Z,54.77
2017-05-22T02:08:20.577Z,54.77
2017-05-22T02:09:01.164Z,54.86
2017-05-22T02:09:41.737Z,54.67
2017-05-22T02:10:22.335Z,54.86
2017-05-22T02:11:02.985Z,54.86
2017-05-22T02:11:43.580Z,54.67
2017-05-22T02:12:24.205Z,54.48
2017-05-22T02:13:04.801Z,54.77
2017-05-22T02:13:45.385Z,54.96
2017-05-22T02:14:25.996Z,55.05
2017-05-22T02:15:06.600Z,54.86
2017-05-22T02:15:47.165Z,54.86
2017-05-22T02:16:27.780Z,55.15
2017-05-22T02:17:08.390Z,54.86
2017-05-22T02:17:48.975Z,54.86
2017-05-22T02:18:29.549Z,54.86
2017-05-22T02:19:10.127Z,55.24
2017-05-22T02:19:50.694Z,54.96
2017-05-22T02:20:31.282Z,54.48
2017-05-22T02:21:11.862Z,54.86
2017-05-22T02:21:52.434Z,54.57
2017-05-22T02:22:33.015Z,55.15
2017-05-22T02:23:13.585Z,55.63
2017-05-22T02:23:54.166Z,55.44
2017-05-22T02:24:34.763Z,55.05
2017-05-22T02:25:15.334Z,54.77
2017-05-22T02:25:55.902Z,55.15
2017-05-22T02:26:36.483Z,55.05
2017-05-22T02:27:17.065Z,55.24
2017-05-22T02:27:57.657Z,55.15
2017-05-22T02:28:38.284Z,55.05
2017-05-22T02:29:18.875Z,55.05
2017-05-22T02:29:59.474Z,55.24
2017-05-22T02:30:40.050Z,55.34
2017-05-22T02:31:20.642Z,55.24
2017-05-22T02:32:01.213Z,55.82
2017-05-22T02:32:41.784Z,55.44
2017-05-22T02:33:22.397Z,55.34
2017-05-22T02:34:02.982Z,55.24
2017-05-22T02:34:43.553Z,55.15
2017-05-22T02:35:24.135Z,55.05
2017-05-22T02:36:04.716Z,55.05
2017-05-22T02:36:45.312Z,55.24
2017-05-22T02:37:25.938Z,55.12
2017-05-22T02:38:06.542Z,55.05
2017-05-22T02:38:47.117Z,55.05
2017-05-22T02:39:27.683Z,55.24
2017-05-22T02:40:08.254Z,55.34
2017-05-22T02:40:48.890Z,55.73
2017-05-22T02:41:29.469Z,55.73
2017-05-22T02:42:10.076Z,55.63
2017-05-22T02:42:50.698Z,55.69
2017-05-22T02:43:31.270Z,55.63
2017-05-22T02:44:11.876Z,55.91
2017-05-22T02:44:52.467Z,56.08
2017-05-22T02:45:33.057Z,56.17
2017-05-22T02:46:13.686Z,55.88
2017-05-22T02:46:54.283Z,55.79
2017-05-22T02:47:34.893Z,55.69
2017-05-22T02:48:15.484Z,56.08
2017-05-22T02:48:56.081Z,56.17
2017-05-22T02:49:36.654Z,56.56
2017-05-22T02:50:17.239Z,56.56
2017-05-22T02:50:57.822Z,55.79
2017-05-22T02:51:38.426Z,56.17
2017-05-22T02:52:19.033Z,56.37
2017-05-22T02:52:59.635Z,56.27
2017-05-22T02:53:40.223Z,56.37
2017-05-22T02:54:20.839Z,56.37
2017-05-22T02:55:01.446Z,56.37
2017-05-22T02:55:42.027Z,56.46
2017-05-22T02:56:22.619Z,56.46
2017-05-22T02:57:03.179Z,56.17
2017-05-22T02:57:43.751Z,56.56
2017-05-22T02:58:24.383Z,56.65
2017-05-22T02:59:04.913Z,56.56
2017-05-22T02:59:45.505Z,56.84
2017-05-22T03:00:26.085Z,57.13
2017-05-22T03:01:06.672Z,56.94
2017-05-22T03:01:47.248Z,57.13
2017-05-22T03:02:27.844Z,57.04
2017-05-22T03:03:08.462Z,56.94
2017-05-22T03:03:49.039Z,56.94
2017-05-22T03:04:29.643Z,57.13
2017-05-22T03:05:10.225Z,56.84
2017-05-22T03:05:50.828Z,56.94
2017-05-22T03:06:31.408Z,56.94
2017-05-22T03:07:11.987Z,56.84
2017-05-22T03:07:52.590Z,56.94
2017-05-22T03:08:33.200Z,57.13
2017-05-22T03:09:13.780Z,57.13
2017-05-22T03:09:54.364Z,57.13
2017-05-22T03:10:34.960Z,57.23
2017-05-22T03:11:15.530Z,57.23
2017-05-22T03:11:56.109Z,57.04
2017-05-22T03:12:36.687Z,57.42
2017-05-22T03:13:17.280Z,57.32
2017-05-22T03:13:57.855Z,57.32
2017-05-22T03:14:38.453Z,57.42
2017-05-22T03:15:19.042Z,57.61
2017-05-22T03:15:59.619Z,57.8
2017-05-22T03:16:40.196Z,57.23
2017-05-22T03:17:20.841Z,57.9
2017-05-22T03:18:01.478Z,57.42
2017-05-22T03:18:42.038Z,57.61
2017-05-22T03:19:22.613Z,57.7
2017-05-22T03:20:03.200Z,57.32
2017-05-22T03:20:43.792Z,57.8
2017-05-22T03:21:24.376Z,57.77
2017-05-22T03:22:04.957Z,58.15
2017-05-22T03:22:45.518Z,58.28
2017-05-22T03:23:26.130Z,57.8
2017-05-22T03:24:06.722Z,57.97
2017-05-22T03:24:47.301Z,58.25
2017-05-22T03:25:27.885Z,58.25
2017-05-22T03:26:08.489Z,57.97
2017-05-22T03:26:49.096Z,58.15
2017-05-22T03:27:29.664Z,58.06
2017-05-22T03:28:10.259Z,58.54
2017-05-22T03:28:50.872Z,58.25
2017-05-22T03:29:31.456Z,58.25
2017-05-22T03:30:12.035Z,58.44
2017-05-22T03:30:52.620Z,58.15
2017-05-22T03:31:33.197Z,58.15
2017-05-22T03:32:13.802Z,58.15
2017-05-22T03:32:54.362Z,58.25
2017-05-22T03:33:34.934Z,58.15
2017-05-22T03:34:15.505Z,58.34
2017-05-22T03:34:56.100Z,57.97
2017-05-22T03:35:36.674Z,57.97
2017-05-22T03:36:17.279Z,58.25
2017-05-22T03:36:57.880Z,58.63
2017-05-22T03:37:38.453Z,58.34
2017-05-22T03:38:19.034Z,58.73
2017-05-22T03:38:59.654Z,58.73
2017-05-22T03:39:40.252Z,58.63
2017-05-22T03:40:20.859Z,58.92
2017-05-22T03:41:01.428Z,59.01
2017-05-22T03:41:42.025Z,59.11
2017-05-22T03:42:22.594Z,58.92
2017-05-22T03:43:03.169Z,58.83
2017-05-22T03:43:43.755Z,58.73
2017-05-22T03:44:24.327Z,58.73
2017-05-22T03:45:04.922Z,59.11
2017-05-22T03:45:45.504Z,58.83
2017-05-22T03:46:26.086Z,58.92
2017-05-22T03:47:06.670Z,58.73
2017-05-22T03:47:47.261Z,58.54
2017-05-22T03:48:27.822Z,58.54
2017-05-22T03:49:08.452Z,58.83
2017-05-22T03:49:49.040Z,58.54
2017-05-22T03:50:29.611Z,58.83
2017-05-22T03:51:10.206Z,59.3
2017-05-22T03:51:50.782Z,59.11
2017-05-22T03:52:31.372Z,59.3
2017-05-22T03:53:11.980Z,59.4
2017-05-22T03:53:52.612Z,59.4
2017-05-22T03:54:33.163Z,58.83
2017-05-22T03:55:13.790Z,59.11
2017-05-22T03:55:54.366Z,59.4
2017-05-22T03:56:34.938Z,59.3
2017-05-22T03:57:15.563Z,59.2
2017-05-22T03:57:56.140Z,59.3
2017-05-22T03:58:36.723Z,59.11
2017-05-22T03:59:17.307Z,59.4
2017-05-22T03:59:57.876Z,59.3
2017-05-22T04:00:38.469Z,59.69
2017-05-22T04:01:19.048Z,59.3
2017-05-22T04:01:59.628Z,59.3
2017-05-22T04:02:40.262Z,59.49
2017-05-22T04:03:20.865Z,59.69
2017-05-22T04:04:01.449Z,59.69
2017-05-22T04:04:42.041Z,59.69
2017-05-22T04:05:22.644Z,59.69
2017-05-22T04:06:03.222Z,59.59
2017-05-22T04:06:43.832Z,59.97
2017-05-22T04:07:24.412Z,60.26
2017-05-22T04:08:05.002Z,59.88
2017-05-22T04:08:45.627Z,60.06
2017-05-22T04:09:26.231Z,59.49
2017-05-22T04:10:06.821Z,59.49
2017-05-22T04:10:47.394Z,60.26
2017-05-22T04:11:27.979Z,60.26
2017-05-22T04:12:08.604Z,60.45
2017-05-22T04:12:49.184Z,60.45
2017-05-22T04:13:29.822Z,60.45
2017-05-22T04:14:10.399Z,60.26
2017-05-22T04:14:51.015Z,60.06
2017-05-22T04:15:31.590Z,60.06
2017-05-22T04:16:12.189Z,60.35
2017-05-22T04:16:52.864Z,60.16
2017-05-22T04:17:33.360Z,60.06
2017-05-22T04:18:13.931Z,60.16
2017-05-22T04:18:54.531Z,59.97
2017-05-22T04:19:35.153Z,60.45
2017-05-22T04:20:15.765Z,60.45
2017-05-22T04:20:56.412Z,60.16
2017-05-22T04:21:37.005Z,60.45
2017-05-22T04:22:17.584Z,60.45
2017-05-22T04:22:58.156Z,60.16
2017-05-22T04:23:38.732Z,60.35
2017-05-22T04:24:19.310Z,60.16
2017-05-22T04:24:59.919Z,60.16
2017-05-22T04:25:40.528Z,60.35
2017-05-22T04:26:21.112Z,60.55
2017-05-22T04:27:01.683Z,60.1
2017-05-22T04:27:42.271Z,60.06
2017-05-22T04:28:22.862Z,60.06
2017-05-22T04:29:03.431Z,60.26
2017-05-22T04:29:45.323Z,60.26
2017-05-22T04:30:28.325Z,60.55
2017-05-22T04:31:09.834Z,60.55
2017-05-22T04:31:53.324Z,60.45
2017-05-22T04:32:35.987Z,60.45
2017-05-22T04:33:20.329Z,60.55
2017-05-22T04:34:03.042Z,60.45
2017-05-22T04:34:46.326Z,60.16
2017-05-22T04:35:30.330Z,60.38
2017-05-22T04:36:13.329Z,60.26
2017-05-22T04:36:57.319Z,60.77
2017-05-22T04:37:38.801Z,60.16
2017-05-22T04:38:19.364Z,60.19
2017-05-22T04:38:59.993Z,60.48
2017-05-22T04:39:40.617Z,60.38
2017-05-22T04:40:21.188Z,60.38
2017-05-22T04:41:01.767Z,60.19
2017-05-22T04:41:42.385Z,60.38
2017-05-22T04:42:22.969Z,60.29
2017-05-22T04:43:03.536Z,60.19
2017-05-22T04:43:44.140Z,60.67
2017-05-22T04:44:24.744Z,60.48
2017-05-22T04:45:05.363Z,60.19
2017-05-22T04:45:45.966Z,60.48
2017-05-22T04:46:26.560Z,60.29
2017-05-22T04:47:07.171Z,60.58
2017-05-22T04:47:47.748Z,60.77
2017-05-22T04:48:28.368Z,60.86
2017-05-22T04:49:09.033Z,60.67
2017-05-22T04:49:49.635Z,60.58
2017-05-22T04:50:30.230Z,60.86
2017-05-22T04:51:10.811Z,61.15
2017-05-22T04:51:51.404Z,61.44
2017-05-22T04:52:32.000Z,61.44
2017-05-22T04:53:12.591Z,61.25
2017-05-22T04:53:53.283Z,61.15
2017-05-22T04:54:33.801Z,61.25
2017-05-22T04:55:14.420Z,61.25
2017-05-22T04:55:55.034Z,61.05
2017-05-22T04:56:36.022Z,61.15
2017-05-22T04:57:16.606Z,60.58
2017-05-22T04:57:57.196Z,60.51
2017-05-22T04:58:37.788Z,60.32
2017-05-22T04:59:18.373Z,59.55
2017-05-22T04:59:58.960Z,58.72
2017-05-22T05:00:39.559Z,57.38
2017-05-22T05:01:20.165Z,56.13
2017-05-22T05:02:00.755Z,56.42
2017-05-22T05:02:41.733Z,55.85
2017-05-22T05:03:22.353Z,56.13
2017-05-22T05:04:02.958Z,56.61
2017-05-22T05:04:43.618Z,56.23
2017-05-22T05:05:24.193Z,56.35
2017-05-22T05:06:04.765Z,56.45
2017-05-22T05:06:45.363Z,56.45
2017-05-22T05:07:25.941Z,56.16
2017-05-22T05:08:06.541Z,55.4
2017-05-22T05:08:47.130Z,54.91
2017-05-22T05:09:27.696Z,54.72
2017-05-22T05:10:08.295Z,54.27
2017-05-22T05:10:48.875Z,53.5
2017-05-22T05:11:29.451Z,52.93
2017-05-22T05:12:10.071Z,52.26
2017-05-22T05:12:50.665Z,51.81
2017-05-22T05:13:31.260Z,51.42
2017-05-22T05:14:11.872Z,51.42
2017-05-22T05:14:52.451Z,51.14
2017-05-22T05:15:33.029Z,51.32
2017-05-22T05:16:13.586Z,50.37
2017-05-22T05:16:54.162Z,50.65
2017-05-22T05:17:34.745Z,50.17
2017-05-22T05:18:15.330Z,50.37
2017-05-22T05:18:55.895Z,50.56
2017-05-22T05:19:36.526Z,50.56
2017-05-22T05:20:17.093Z,50.17
2017-05-22T05:20:57.672Z,50.27
2017-05-22T05:21:38.649Z,49.41
2017-05-22T05:22:19.223Z,49.24
2017-05-22T05:22:59.801Z,48.85
2017-05-22T05:23:40.382Z,48.57
2017-05-22T05:24:20.956Z,48.95
2017-05-22T05:25:01.531Z,48.95
2017-05-22T05:25:42.111Z,48.38
2017-05-22T05:26:22.687Z,47.99
2017-05-22T05:27:03.278Z,47.22
2017-05-22T05:27:43.848Z,47.32
2017-05-22T05:28:24.469Z,47.61
2017-05-22T05:29:06.511Z,47.61
2017-05-22T05:29:48.772Z,47.72
2017-05-22T05:30:29.363Z,47.05
2017-05-22T05:31:09.974Z,45.14
2017-05-22T05:31:50.563Z,44.84
2017-05-22T05:32:31.144Z,45.23
2017-05-22T05:33:11.729Z,44.94
2017-05-22T05:33:52.318Z,45.14
2017-05-22T05:34:32.900Z,45.61
2017-05-22T05:35:13.494Z,45.9
2017-05-22T05:35:54.082Z,45.81
2017-05-22T05:36:34.694Z,45.45
2017-05-22T05:37:15.275Z,45.73
2017-05-22T05:37:55.854Z,45.54
2017-05-22T05:38:36.470Z,44.87
2017-05-22T05:39:17.021Z,44.29
2017-05-22T05:39:57.595Z,44
2017-05-22T05:40:38.239Z,43.35
2017-05-22T05:41:18.846Z,43.45
2017-05-22T05:41:59.434Z,43.64
2017-05-22T05:42:40.026Z,43.45
2017-05-22T05:43:20.612Z,42.49
2017-05-22T05:44:01.964Z,41.14
2017-05-22T05:44:44.550Z,41.91
2017-05-22T05:45:28.352Z,42
2017-05-22T05:46:11.342Z,42.03
2017-05-22T05:46:56.363Z,41.06
2017-05-22T05:47:38.600Z,41.16
2017-05-22T05:48:19.189Z,40.58
2017-05-22T05:48:59.792Z,40.97
2017-05-22T05:49:40.382Z,40.31
2017-05-22T05:50:20.950Z,40.31
2017-05-22T05:51:01.577Z,40.22
2017-05-22T05:51:42.197Z,40.03
2017-05-22T05:52:22.783Z,40.22
2017-05-22T05:53:03.376Z,40.31
2017-05-22T05:53:43.958Z,39.54
2017-05-22T05:54:24.550Z,39.64
2017-05-22T05:55:05.125Z,39.74
2017-05-22T05:55:45.698Z,39.83
2017-05-22T05:56:26.327Z,39.76
2017-05-22T05:57:06.912Z,39.56
2017-05-22T05:57:47.496Z,39.37
2017-05-22T05:58:28.091Z,39.47
2017-05-22T05:59:08.668Z,38.79
2017-05-22T05:59:49.245Z,38.99
2017-05-22T06:00:29.838Z,38.89
2017-05-22T06:01:10.450Z,38.79
2017-05-22T06:01:51.035Z,38.89
2017-05-22T06:02:31.620Z,38.89
2017-05-22T06:03:12.184Z,38.41
2017-05-22T06:03:52.754Z,38.51
2017-05-22T06:04:33.379Z,38.51
2017-05-22T06:05:13.910Z,38.51
2017-05-22T06:05:54.540Z,37.45
2017-05-22T06:06:35.117Z,37.45
2017-05-22T06:07:15.711Z,37.16
2017-05-22T06:07:56.314Z,38.04
2017-05-22T06:08:36.917Z,37.85
2017-05-22T06:09:17.527Z,37.95
2017-05-22T06:09:58.144Z,37.56
2017-05-22T06:10:38.736Z,37.37
2017-05-22T06:11:19.328Z,37.08
2017-05-22T06:11:59.908Z,36.99
2017-05-22T06:12:40.497Z,37.18
2017-05-22T06:13:21.099Z,36.51
2017-05-22T06:14:01.698Z,37.18
2017-05-22T06:14:42.346Z,37.08
2017-05-22T06:15:22.941Z,36.41
2017-05-22T06:16:03.515Z,37.18
2017-05-22T06:16:44.097Z,37.46
2017-05-22T06:17:24.697Z,37.76
2017-05-22T06:18:05.340Z,37.66
2017-05-22T06:18:45.938Z,37.37
2017-05-22T06:19:26.519Z,37.46
2017-05-22T06:20:07.160Z,37.46
2017-05-22T06:20:47.782Z,37.46
2017-05-22T06:21:28.387Z,37.46
2017-05-22T06:22:09.051Z,37.27
2017-05-22T06:22:49.642Z,37.18
2017-05-22T06:23:30.279Z,36.69
2017-05-22T06:24:10.800Z,37.08
2017-05-22T06:24:51.418Z,36.41
2017-05-22T06:25:32.011Z,36.51
2017-05-22T06:26:12.619Z,37.27
2017-05-22T06:26:53.231Z,36.21
2017-05-22T06:27:33.819Z,36.89
2017-05-22T06:28:14.412Z,37.27
2017-05-22T06:28:54.994Z,37.18
2017-05-22T06:29:35.618Z,37.27
2017-05-22T06:30:16.165Z,37.18
2017-05-22T06:30:56.775Z,37.18
2017-05-22T06:31:37.362Z,36.71
2017-05-22T06:32:17.959Z,36.61
2017-05-22T06:32:58.546Z,36.23
2017-05-22T06:33:39.148Z,36.71
2017-05-22T06:34:19.742Z,36.13
2017-05-22T06:35:00.366Z,34.9
2017-05-22T06:35:41.003Z,34.69
2017-05-22T06:36:21.620Z,35.48
2017-05-22T06:37:02.261Z,36.06
2017-05-22T06:37:42.856Z,35.77
2017-05-22T06:38:23.488Z,35.38
2017-05-22T06:39:04.098Z,35.48
2017-05-22T06:39:44.752Z,35.58
2017-05-22T06:40:25.336Z,35.4
2017-05-22T06:41:05.955Z,35.5
2017-05-22T06:41:46.570Z,35.3
2017-05-22T06:42:27.193Z,34.92
2017-05-22T06:43:07.811Z,34.72
2017-05-22T06:43:48.396Z,34.72
2017-05-22T06:44:28.983Z,34.63
2017-05-22T06:45:09.612Z,34.44
2017-05-22T06:45:50.229Z,35.42
2017-05-22T06:46:30.942Z,35.42
2017-05-22T06:47:11.604Z,35.32
2017-05-22T06:47:52.217Z,34.64
2017-05-22T06:48:32.830Z,34.36
2017-05-22T06:49:13.423Z,33.78
2017-05-22T06:49:54.075Z,34.84
2017-05-22T06:50:34.651Z,35.61
2017-05-22T06:51:15.281Z,34.74
2017-05-22T06:51:55.861Z,34.94
2017-05-22T06:52:37.720Z,34.74
2017-05-22T06:53:22.286Z,33.78
2017-05-22T06:54:04.533Z,33.29
2017-05-22T06:54:47.282Z,32.91
2017-05-22T06:55:30.088Z,33
2017-05-22T06:56:11.212Z,33.98
2017-05-22T06:56:51.803Z,34.18
2017-05-22T06:57:32.413Z,33.98
2017-05-22T06:58:13.004Z,33.6
2017-05-22T06:58:54.379Z,33.7
2017-05-22T06:59:34.923Z,32.64
2017-05-22T07:00:15.531Z,33.31
2017-05-22T07:00:56.202Z,33.31
2017-05-22T07:01:36.766Z,32.44
2017-05-22T07:02:17.359Z,32.24
2017-05-22T07:02:57.942Z,31.28
2017-05-22T07:03:38.538Z,32.15
2017-05-22T07:04:19.137Z,33.31
2017-05-22T07:04:59.731Z,33.22
2017-05-22T07:05:40.320Z,32.34
2017-05-22T07:06:20.902Z,32.64
2017-05-22T07:07:01.518Z,32.92
2017-05-22T07:07:42.095Z,33.31
2017-05-22T07:08:22.690Z,32.64
2017-05-22T07:09:03.280Z,32.06
2017-05-22T07:09:43.866Z,32.24
2017-05-22T07:10:24.473Z,31.67
2017-05-22T07:11:05.083Z,32.44
2017-05-22T07:11:45.761Z,32.34
2017-05-22T07:12:26.373Z,31.57
2017-05-22T07:13:07.084Z,31.48
2017-05-22T07:13:47.720Z,30.8
2017-05-22T07:14:28.298Z,31.38
2017-05-22T07:15:08.888Z,31.28
2017-05-22T07:15:49.494Z,31.86
2017-05-22T07:16:30.090Z,31.76
2017-05-22T07:17:10.684Z,32.15
2017-05-22T07:17:51.338Z,31.57
2017-05-22T07:18:31.939Z,31.1
2017-05-22T07:19:12.526Z,30.82
2017-05-22T07:19:53.137Z,31.4
2017-05-22T07:20:33.713Z,31.09
2017-05-22T07:21:14.335Z,30.9
2017-05-22T07:21:54.940Z,30.7
2017-05-22T07:22:35.543Z,30.9
2017-05-22T07:23:16.135Z,31.68
2017-05-22T07:23:56.756Z,31.4
2017-05-22T07:24:37.313Z,31.3
2017-05-22T07:25:17.912Z,31.38
2017-05-22T07:25:58.506Z,30.62
2017-05-22T07:26:39.126Z,31.49
2017-05-22T07:27:19.709Z,31.76
2017-05-22T07:28:00.312Z,32.24
2017-05-22T07:28:40.915Z,30.72
2017-05-22T07:29:21.495Z,31.2
2017-05-22T07:30:02.140Z,32.36
2017-05-22T07:30:42.724Z,32.84
2017-05-22T07:31:23.323Z,32.36
2017-05-22T07:32:03.919Z,30.91
2017-05-22T07:32:44.519Z,29.85
2017-05-22T07:33:25.108Z,30.43
2017-05-22T07:34:05.702Z,30.82
2017-05-22T07:34:46.296Z,31.4
2017-05-22T07:35:26.869Z,31.1
2017-05-22T07:36:07.514Z,31.4
2017-05-22T07:36:48.127Z,31.1
2017-05-22T07:37:28.731Z,31.4
2017-05-22T07:38:09.355Z,30.52
2017-05-22T07:38:49.994Z,30.91
2017-05-22T07:39:30.592Z,32.17
2017-05-22T07:40:11.158Z,32.65
2017-05-22T07:40:51.750Z,30.24
2017-05-22T07:41:32.355Z,30.91
2017-05-22T07:42:12.943Z,30.91
2017-05-22T07:42:53.548Z,30.33
2017-05-22T07:43:34.140Z,30.52
2017-05-22T07:44:14.760Z,31.2
2017-05-22T07:44:55.348Z,31.4
2017-05-22T07:45:35.948Z,30.33
2017-05-22T07:46:16.538Z,30.52
2017-05-22T07:46:57.148Z,30.14
2017-05-22T07:47:37.729Z,30.33
2017-05-22T07:48:18.371Z,30.62
2017-05-22T07:48:58.956Z,30.24
2017-05-22T07:49:39.555Z,30.62
2017-05-22T07:50:20.159Z,29.75
2017-05-22T07:51:00.752Z,30.14
2017-05-22T07:51:41.329Z,31.01
2017-05-22T07:52:21.922Z,29.66
2017-05-22T07:53:02.539Z,29.08
2017-05-22T07:53:43.124Z,30.33
2017-05-22T07:54:23.712Z,31.3
2017-05-22T07:55:04.295Z,31.68
2017-05-22T07:55:44.920Z,30.43
2017-05-22T07:56:25.557Z,31.78
2017-05-22T07:57:06.126Z,32.26
2017-05-22T07:57:46.709Z,33.14
2017-05-22T07:58:27.346Z,31.01
2017-05-22T07:59:07.875Z,30.62
2017-05-22T07:59:48.487Z,30.35
2017-05-22T08:00:29.098Z,30.52
2017-05-22T08:01:09.765Z,31.02
2017-05-22T08:01:50.360Z,31.6
2017-05-22T08:02:30.948Z,30.52
2017-05-22T08:03:11.545Z,29.77
2017-05-22T08:03:52.155Z,29.19
2017-05-22T08:04:32.746Z,30.43
2017-05-22T08:05:13.325Z,30.04
2017-05-22T08:05:53.915Z,29.56
2017-05-22T08:06:34.502Z,30.52
2017-05-22T08:07:15.105Z,29.66
2017-05-22T08:07:55.708Z,29.47
2017-05-22T08:08:36.299Z,28.69
2017-05-22T08:09:16.879Z,28.59
2017-05-22T08:09:57.458Z,29.08
2017-05-22T08:10:38.047Z,30.62
2017-05-22T08:11:18.651Z,30.33
2017-05-22T08:11:59.265Z,30.43
2017-05-22T08:12:39.869Z,30.91
2017-05-22T08:13:20.463Z,31.49
2017-05-22T08:14:01.043Z,31.59
2017-05-22T08:14:41.630Z,30.52
2017-05-22T08:15:22.218Z,30.62
2017-05-22T08:16:02.798Z,30.82
2017-05-22T08:16:43.374Z,30.24
2017-05-22T08:17:23.959Z,30.72
2017-05-22T08:18:04.544Z,30.82
2017-05-22T08:18:45.140Z,30.43
2017-05-22T08:19:25.772Z,30.04
2017-05-22T08:20:06.351Z,30.04
2017-05-22T08:20:46.945Z,31.68
2017-05-22T08:21:27.540Z,31.59
2017-05-22T08:22:08.124Z,32.17
2017-05-22T08:22:48.748Z,31.78
2017-05-22T08:23:29.337Z,31.2
2017-05-22T08:24:09.942Z,31.4
2017-05-22T08:24:50.564Z,31.49
2017-05-22T08:25:31.149Z,32.26
2017-05-22T08:26:11.764Z,32.46
2017-05-22T08:26:52.385Z,32.36
2017-05-22T08:27:32.976Z,32.38
2017-05-22T08:28:13.585Z,32.17
2017-05-22T08:28:54.167Z,32.36
2017-05-22T08:29:34.761Z,32.28
2017-05-22T08:30:15.379Z,30.83
2017-05-22T08:30:55.998Z,29.75
2017-05-22T08:31:36.612Z,31.22
2017-05-22T08:32:17.199Z,32.47
2017-05-22T08:32:57.775Z,31.6
2017-05-22T08:33:38.371Z,32.38
2017-05-22T08:34:18.954Z,32.67
2017-05-22T08:34:59.568Z,32.28
2017-05-22T08:35:40.193Z,32.38
2017-05-22T08:36:20.798Z,32.28
2017-05-22T08:37:01.397Z,30.25
2017-05-22T08:37:42.006Z,29.77
2017-05-22T08:38:22.608Z,29.57
2017-05-22T08:39:03.203Z,29.86
2017-05-22T08:39:43.791Z,30.35
2017-05-22T08:40:24.377Z,29.77
2017-05-22T08:41:04.937Z,29.66
2017-05-22T08:41:45.509Z,30.43
2017-05-22T08:42:26.097Z,30.91
2017-05-22T08:43:06.689Z,30.33
2017-05-22T08:43:47.291Z,30.52
2017-05-22T08:44:27.904Z,30.91
2017-05-22T08:45:08.508Z,30.72
2017-05-22T08:45:49.135Z,30.91
2017-05-22T08:46:29.758Z,31.59
2017-05-22T08:47:10.334Z,31.3
2017-05-22T08:47:50.921Z,31.4